Time;durP1;ratioP1;P1;durP2;ratioP2;P2;SDS_P1;SDS_P2;PMS_P1;PMS_P2;Temp;Humidity;BMP_temperature;BMP_pressure;BME280_temperature;BME280_humidity;BME280_pressure;Samples;Min_cycle;Max_cycle;Signal;HPM_P1;HPM_P2
2022/09/16 00:00:54;;;;;;;4.95;1.08;;;13.10;99.90;;;;;;7361620;32;20099;-61
2022/09/16 00:04:56;;;;;;;3.85;0.75;;;13.10;99.90;;;;;;7365287;32;20836;-61
2022/09/16 00:09:02;;;;;;;4.05;0.70;;;13.10;99.90;;;;;;7366461;32;20131;-61
2022/09/16 00:13:04;;;;;;;4.87;0.65;;;13.10;99.90;;;;;;7362294;32;21003;-61
2022/09/16 00:17:06;;;;;;;2.72;0.60;;;13.00;99.90;;;;;;7366174;32;20125;-61
2022/09/16 00:21:09;;;;;;;4.40;0.90;;;13.00;99.90;;;;;;7361458;32;20103;-61
2022/09/16 00:25:10;;;;;;;9.95;0.70;;;13.10;99.90;;;;;;7363368;32;20107;-61
2022/09/16 00:29:12;;;;;;;5.90;0.60;;;13.00;99.90;;;;;;7363221;32;20197;-61
2022/09/16 00:33:14;;;;;;;2.85;0.70;;;13.10;99.90;;;;;;7363222;32;20187;-61
2022/09/16 00:37:16;;;;;;;4.20;0.80;;;13.00;99.90;;;;;;7366870;32;20137;-61
2022/09/16 00:41:23;;;;;;;6.47;0.95;;;13.00;99.90;;;;;;7362316;32;20108;-61
2022/09/16 00:45:30;;;;;;;3.10;0.68;;;13.00;99.90;;;;;;7365981;32;20225;-61
2022/09/16 00:49:32;;;;;;;5.70;0.93;;;13.10;99.90;;;;;;7362066;32;20122;-61
2022/09/16 00:53:39;;;;;;;4.03;0.70;;;13.10;99.90;;;;;;7363633;32;20671;-62
2022/09/16 00:57:45;;;;;;;3.87;0.65;;;12.90;99.90;;;;;;7365673;32;20107;-62
2022/09/16 01:01:48;;;;;;;4.20;1.02;;;12.90;99.90;;;;;;7364673;32;20102;-62
2022/09/16 01:05:49;;;;;;;4.87;0.60;;;12.90;99.90;;;;;;7360299;32;20126;-61
2022/09/16 01:09:52;;;;;;;6.22;0.70;;;12.90;99.90;;;;;;7361769;32;20138;-61
2022/09/16 01:14:51;;;;;;;8.70;1.02;;;12.90;99.90;;;;;;7367702;32;20129;-61
2022/09/16 01:18:37;;;;;;;6.45;0.70;;;12.80;99.90;;;;;;7357025;32;20110;-61
2022/09/16 01:23:08;;;;;;;2.62;0.65;;;12.80;99.90;;;;;;7365240;32;20539;-61
2022/09/16 01:27:18;;;;;;;5.18;0.90;;;12.80;99.90;;;;;;7359077;32;21117;-61
2022/09/16 01:31:37;;;;;;;2.20;0.68;;;12.80;99.90;;;;;;7362696;32;20559;-60
2022/09/16 01:35:57;;;;;;;3.83;0.60;;;12.80;99.90;;;;;;7366007;32;20169;-61
2022/09/16 01:40:27;;;;;;;2.55;0.60;;;12.70;99.90;;;;;;7364130;32;20159;-61
2022/09/16 01:44:50;;;;;;;4.15;0.80;;;12.80;99.90;;;;;;7363516;32;20118;-61
2022/09/16 01:49:01;;;;;;;4.10;0.68;;;12.80;99.90;;;;;;7364646;32;20130;-61
2022/09/16 01:53:16;;;;;;;5.75;0.80;;;12.80;99.90;;;;;;7367016;32;20099;-59
2022/09/16 01:57:59;;;;;;;3.53;0.70;;;12.70;99.90;;;;;;7366414;32;20201;-60
2022/09/16 02:02:16;;;;;;;4.20;0.57;;;12.70;99.90;;;;;;7291624;32;20483;-59
2022/09/16 02:06:22;;;;;;;6.68;0.65;;;12.70;99.90;;;;;;7357353;32;20118;-59
2022/09/16 02:10:32;;;;;;;5.55;0.85;;;12.80;99.90;;;;;;7358787;32;20137;-59
2022/09/16 02:14:41;;;;;;;4.78;0.75;;;12.80;99.90;;;;;;7366954;32;20534;-60
2022/09/16 02:18:50;;;;;;;4.68;0.73;;;12.70;99.90;;;;;;7369672;32;20104;-60
2022/09/16 02:23:02;;;;;;;5.07;0.90;;;12.70;99.90;;;;;;7350165;32;20136;-60
2022/09/16 02:27:09;;;;;;;5.12;1.00;;;12.70;99.90;;;;;;7362875;32;20125;-59
2022/09/16 02:31:13;;;;;;;6.57;1.10;;;12.80;99.90;;;;;;7366172;32;20102;-60
2022/09/16 02:35:17;;;;;;;6.25;0.85;;;12.80;99.90;;;;;;7369111;32;20224;-60
2022/09/16 02:39:26;;;;;;;7.47;1.00;;;12.70;99.90;;;;;;7360768;32;20717;-60
2022/09/16 02:43:28;;;;;;;5.55;0.82;;;12.80;99.90;;;;;;7370095;32;20103;-60
2022/09/16 02:47:42;;;;;;;4.72;1.10;;;12.70;99.90;;;;;;7366291;32;20122;-60
2022/09/16 02:51:59;;;;;;;7.72;0.90;;;12.80;99.90;;;;;;7363295;32;20178;-60
2022/09/16 02:56:08;;;;;;;8.10;1.00;;;12.70;99.90;;;;;;7370301;32;20516;-61
2022/09/16 03:00:10;;;;;;;5.10;0.80;;;12.70;99.90;;;;;;7359399;32;20099;-60
2022/09/16 03:04:14;;;;;;;5.50;1.10;;;12.70;99.90;;;;;;7370096;32;20190;-60
2022/09/16 03:08:16;;;;;;;6.18;1.50;;;12.70;99.90;;;;;;7369463;32;20129;-60
2022/09/16 03:12:36;;;;;;;5.80;1.00;;;12.70;99.90;;;;;;7371759;32;20091;-60
2022/09/16 03:16:53;;;;;;;6.45;1.10;;;12.70;99.90;;;;;;7374074;32;20801;-61
2022/09/16 03:21:23;;;;;;;2.97;0.93;;;12.70;99.90;;;;;;7367280;32;20696;-60
2022/09/16 03:25:56;;;;;;;6.20;0.90;;;12.70;99.90;;;;;;7361103;32;20216;-60
2022/09/16 03:30:07;;;;;;;5.62;1.00;;;12.70;99.90;;;;;;7366587;32;20122;-60
2022/09/16 03:34:23;;;;;;;5.30;1.08;;;12.60;99.90;;;;;;7367288;32;20102;-60
2022/09/16 03:38:26;;;;;;;7.32;1.08;;;12.60;99.90;;;;;;7369776;32;20471;-60
2022/09/16 03:42:27;;;;;;;3.33;0.80;;;12.60;99.90;;;;;;7370219;32;20091;-59
2022/09/16 03:46:29;;;;;;;7.03;0.95;;;12.60;99.90;;;;;;7368522;32;20463;-60
2022/09/16 03:50:31;;;;;;;11.25;1.10;;;12.60;99.90;;;;;;7365515;32;20216;-60
2022/09/16 03:54:33;;;;;;;7.05;1.10;;;12.60;99.90;;;;;;7365798;32;20107;-60
2022/09/16 03:58:35;;;;;;;6.32;1.12;;;12.70;99.90;;;;;;7369549;32;20190;-60
2022/09/16 04:02:37;;;;;;;4.87;0.98;;;12.60;99.90;;;;;;7359169;32;20624;-60
2022/09/16 04:06:39;;;;;;;5.78;1.37;;;12.60;99.90;;;;;;7383430;32;20142;-60
2022/09/16 04:10:40;;;;;;;7.57;1.02;;;12.60;99.90;;;;;;7369718;32;20496;-61
2022/09/16 04:14:42;;;;;;;6.32;1.30;;;12.40;99.90;;;;;;7368070;32;20095;-60
2022/09/16 04:18:44;;;;;;;7.28;1.37;;;12.40;99.90;;;;;;7364653;32;20135;-59
2022/09/16 04:22:45;;;;;;;5.57;1.50;;;12.30;99.90;;;;;;7364930;32;20214;-60
2022/09/16 04:26:47;;;;;;;7.43;1.20;;;12.20;99.90;;;;;;7357966;32;20626;-60
2022/09/16 04:30:49;;;;;;;9.13;1.30;;;12.20;99.90;;;;;;7358852;32;20173;-62
2022/09/16 04:34:50;;;;;;;11.45;1.98;;;12.20;99.90;;;;;;7368086;32;20095;-60
2022/09/16 04:38:52;;;;;;;11.12;1.80;;;12.30;99.90;;;;;;7364044;32;20098;-60
2022/09/16 04:42:54;;;;;;;7.62;2.10;;;12.30;99.90;;;;;;7364890;32;20115;-60
2022/09/16 04:46:56;;;;;;;9.75;2.20;;;12.40;99.90;;;;;;7357859;32;20237;-60
2022/09/16 04:51:03;;;;;;;7.75;1.80;;;12.30;99.90;;;;;;7361960;32;20107;-60
2022/09/16 04:55:05;;;;;;;6.00;2.10;;;12.30;99.90;;;;;;7363952;32;20595;-62
2022/09/16 04:59:09;;;;;;;6.07;2.50;;;12.30;99.90;;;;;;7373977;32;20134;-62
2022/09/16 05:03:10;;;;;;;8.13;2.28;;;12.20;99.90;;;;;;7358950;32;20156;-62
2022/09/16 05:07:12;;;;;;;8.23;2.42;;;12.10;99.90;;;;;;7363456;32;20531;-61
2022/09/16 05:11:17;;;;;;;6.37;2.20;;;12.10;99.90;;;;;;7361728;32;20129;-64
2022/09/16 05:15:19;;;;;;;5.53;2.42;;;11.90;99.90;;;;;;7359942;32;20209;-66
2022/09/16 05:19:21;;;;;;;8.88;2.42;;;12.00;99.90;;;;;;7368037;32;20126;-66
2022/09/16 05:23:23;;;;;;;6.03;2.97;;;12.00;99.90;;;;;;7361283;32;20130;-64
2022/09/16 05:27:26;;;;;;;10.48;3.00;;;12.00;99.90;;;;;;7360086;32;20135;-64
2022/09/16 05:31:30;;;;;;;9.10;3.00;;;12.00;99.90;;;;;;7371219;32;20234;-65
2022/09/16 05:35:32;;;;;;;6.57;2.17;;;12.10;99.90;;;;;;7367074;32;20532;-63
2022/09/16 05:39:34;;;;;;;6.97;2.40;;;12.10;99.90;;;;;;7361838;32;20202;-64
2022/09/16 05:43:36;;;;;;;12.75;5.10;;;12.10;99.90;;;;;;7371763;32;20215;-65
2022/09/16 05:47:38;;;;;;;5.35;2.65;;;12.10;99.90;;;;;;7371390;32;20098;-64
2022/09/16 05:51:42;;;;;;;8.60;2.37;;;12.10;99.90;;;;;;7370726;32;20244;-64
2022/09/16 05:55:58;;;;;;;6.07;2.10;;;12.10;99.90;;;;;;7366101;32;20119;-64
2022/09/16 05:59:59;;;;;;;10.60;2.50;;;12.20;99.90;;;;;;7373109;32;20434;-64
2022/09/16 06:04:04;;;;;;;8.82;2.55;;;12.10;99.90;;;;;;7368969;32;20538;-64
2022/09/16 06:08:06;;;;;;;9.85;2.50;;;12.20;99.90;;;;;;7368331;32;20197;-64
2022/09/16 06:12:09;;;;;;;7.62;2.12;;;12.20;99.90;;;;;;7383141;32;20166;-63
2022/09/16 06:16:13;;;;;;;7.47;2.20;;;12.10;99.90;;;;;;7363853;32;20168;-64
2022/09/16 06:20:15;;;;;;;9.13;2.00;;;12.20;99.90;;;;;;7362717;32;20095;-64
2022/09/16 06:24:18;;;;;;;10.68;2.58;;;12.20;99.90;;;;;;7372038;32;20625;-64
2022/09/16 06:28:19;;;;;;;8.30;2.00;;;12.20;99.90;;;;;;7376755;32;20100;-65
2022/09/16 06:32:21;;;;;;;11.30;2.00;;;12.30;99.90;;;;;;7373181;32;20133;-64
2022/09/16 06:36:26;;;;;;;6.10;1.87;;;12.30;99.90;;;;;;7373589;32;20796;-65
2022/09/16 06:40:28;;;;;;;6.30;1.85;;;12.30;99.90;;;;;;7377671;32;20218;-65
2022/09/16 06:44:30;;;;;;;8.77;2.50;;;12.30;99.90;;;;;;7376210;32;20131;-65
2022/09/16 06:48:35;;;;;;;6.35;1.62;;;12.40;99.90;;;;;;7369535;32;20150;-64
2022/09/16 06:52:36;;;;;;;9.35;2.00;;;12.40;99.90;;;;;;7374523;32;20872;-65
2022/09/16 06:56:40;;;;;;;6.28;1.85;;;12.40;99.90;;;;;;7375042;32;20169;-65
2022/09/16 07:00:41;;;;;;;5.53;1.70;;;12.40;99.90;;;;;;7370575;32;20148;-64
2022/09/16 07:04:43;;;;;;;5.37;1.62;;;12.50;99.90;;;;;;7375427;32;20122;-65
2022/09/16 07:08:45;;;;;;;8.80;2.00;;;12.60;99.90;;;;;;7372590;32;20099;-64
2022/09/16 07:12:47;;;;;;;11.63;2.15;;;12.70;99.90;;;;;;7368351;32;20095;-64
2022/09/16 07:16:49;;;;;;;4.87;1.70;;;12.70;99.90;;;;;;7370785;32;20126;-64
2022/09/16 07:20:50;;;;;;;7.35;1.80;;;12.80;99.90;;;;;;7374557;32;20104;-64
2022/09/16 07:24:53;;;;;;;2.92;1.67;;;12.70;99.90;;;;;;7373131;32;20496;-64
2022/09/16 07:28:57;;;;;;;6.78;1.87;;;12.70;99.90;;;;;;7368707;32;20133;-65
2022/09/16 07:32:59;;;;;;;8.15;2.37;;;12.70;99.90;;;;;;7366919;32;20463;-64
2022/09/16 07:37:00;;;;;;;9.55;1.90;;;12.70;99.90;;;;;;7365731;32;20685;-64
2022/09/16 07:41:12;;;;;;;5.68;1.90;;;12.70;99.90;;;;;;7372665;32;20218;-64
2022/09/16 07:45:13;;;;;;;6.10;2.33;;;12.60;99.90;;;;;;7369498;32;20632;-63
2022/09/16 07:49:16;;;;;;;6.32;1.77;;;12.70;99.90;;;;;;7363673;32;20095;-64
2022/09/16 07:53:17;;;;;;;9.45;2.10;;;12.60;99.90;;;;;;7364725;32;20107;-64
2022/09/16 07:57:19;;;;;;;6.47;1.83;;;12.80;99.90;;;;;;7374250;32;20591;-65
2022/09/16 08:01:22;;;;;;;2.25;1.60;;;12.90;99.90;;;;;;7366287;32;20234;-65
2022/09/16 08:05:24;;;;;;;4.57;1.37;;;13.10;99.90;;;;;;7364986;32;20095;-66
2022/09/16 08:09:25;;;;;;;9.50;2.15;;;13.40;99.90;;;;;;7363648;32;20125;-65
2022/09/16 08:13:42;;;;;;;8.32;2.28;;;13.50;99.90;;;;;;7367030;32;20103;-64
2022/09/16 08:17:43;;;;;;;6.40;1.83;;;13.40;99.90;;;;;;7365559;32;20805;-64
2022/09/16 08:21:45;;;;;;;4.43;1.67;;;13.30;99.90;;;;;;7363523;32;20104;-65
2022/09/16 08:25:54;;;;;;;6.82;1.67;;;13.50;99.90;;;;;;7362912;32;20191;-65
2022/09/16 08:29:56;;;;;;;6.28;1.85;;;13.60;99.90;;;;;;7365089;32;20182;-65
2022/09/16 08:33:57;;;;;;;7.15;1.30;;;13.90;99.90;;;;;;7363282;32;20113;-65
2022/09/16 08:37:59;;;;;;;5.70;1.30;;;14.20;99.90;;;;;;7363003;32;20145;-65
2022/09/16 08:42:27;;;;;;;6.85;1.40;;;14.30;99.90;;;;;;7364833;32;20115;-65
2022/09/16 08:46:36;;;;;;;4.20;1.00;;;14.30;99.90;;;;;;7359988;32;20099;-65
2022/09/16 08:50:41;;;;;;;5.95;1.40;;;14.30;99.90;;;;;;7362772;32;20228;-65
2022/09/16 08:54:50;;;;;;;2.53;1.17;;;14.40;99.90;;;;;;7367680;32;20126;-65
2022/09/16 08:59:00;;;;;;;3.08;1.00;;;14.40;99.90;;;;;;7362620;32;20483;-65
2022/09/16 09:03:30;;;;;;;3.83;1.10;;;14.50;99.90;;;;;;7370816;32;20485;-64
2022/09/16 09:08:12;;;;;;;5.40;2.42;;;14.70;99.90;;;;;;7361563;32;20099;-64
2022/09/16 09:12:39;;;;;;;4.85;0.88;;;14.70;99.90;;;;;;7367792;32;20134;-65
2022/09/16 09:17:07;;;;;;;4.32;0.75;;;14.80;99.90;;;;;;7361234;32;20129;-66
2022/09/16 09:21:50;;;;;;;6.97;1.20;;;15.30;99.90;;;;;;7367091;32;20130;-66
2022/09/16 09:26:12;;;;;;;4.25;0.70;;;15.80;99.90;;;;;;7354004;32;20111;-65
2022/09/16 09:30:20;;;;;;;5.37;1.08;;;16.10;99.90;;;;;;7364751;32;20114;-65
2022/09/16 09:34:37;;;;;;;4.07;0.50;;;16.20;99.90;;;;;;7360239;32;20133;-66
2022/09/16 09:38:45;;;;;;;5.43;0.70;;;16.40;99.90;;;;;;7364246;32;20537;-65
2022/09/16 09:43:10;;;;;;;5.72;0.95;;;17.50;99.90;;;;;;7368914;32;20110;-65
2022/09/16 09:47:19;;;;;;;3.58;0.85;;;17.00;99.90;;;;;;7370877;32;20201;-65
2022/09/16 09:51:31;;;;;;;2.75;0.60;;;16.80;99.90;;;;;;7364534;32;20107;-65
2022/09/16 09:55:34;;;;;;;4.40;0.75;;;16.60;99.90;;;;;;7359845;32;20833;-65
2022/09/16 10:00:09;;;;;;;4.00;0.70;;;17.30;99.90;;;;;;7362516;32;20604;-65
2022/09/16 10:04:14;;;;;;;2.80;0.37;;;17.50;99.90;;;;;;7354484;32;20299;-65
2022/09/16 10:08:28;;;;;;;3.28;0.73;;;17.10;99.90;;;;;;7365262;32;20115;-66
2022/09/16 10:12:33;;;;;;;5.40;0.50;;;18.00;99.90;;;;;;7359995;32;20115;-66
2022/09/16 10:16:36;;;;;;;4.75;0.80;;;18.90;99.90;;;;;;7363468;32;20238;-65
2022/09/16 10:20:43;;;;;;;5.50;0.65;;;18.60;99.90;;;;;;7358561;32;20231;-66
2022/09/16 10:24:56;;;;;;;2.60;0.40;;;17.90;99.90;;;;;;7362610;32;20504;-66
2022/09/16 10:29:18;;;;;;;3.92;0.43;;;17.90;99.90;;;;;;7357270;32;20205;-66
2022/09/16 10:33:28;;;;;;;3.35;0.50;;;18.20;99.90;;;;;;7362285;32;20612;-66
2022/09/16 10:37:29;;;;;;;5.75;1.02;;;18.30;99.90;;;;;;7365664;32;20186;-65
2022/09/16 10:41:33;;;;;;;4.00;0.55;;;17.80;99.90;;;;;;7363064;32;20123;-65
2022/09/16 10:45:42;;;;;;;4.82;0.70;;;17.00;99.90;;;;;;7359952;32;20106;-65
2022/09/16 10:50:02;;;;;;;4.05;0.70;;;16.80;99.90;;;;;;7366106;32;20210;-66
2022/09/16 10:54:05;;;;;;;5.47;0.62;;;16.90;99.90;;;;;;7366752;32;20138;-65
2022/09/16 10:58:16;;;;;;;3.37;0.60;;;16.90;99.90;;;;;;7367719;32;20232;-65
2022/09/16 11:02:43;;;;;;;7.60;0.75;;;17.10;99.90;;;;;;7370790;32;20200;-65
2022/09/16 11:07:08;;;;;;;2.15;0.45;;;17.10;99.90;;;;;;7358585;32;20146;-64
2022/09/16 11:11:35;;;;;;;3.90;0.70;;;17.00;99.90;;;;;;7365422;32;20421;-65
2022/09/16 11:15:49;;;;;;;4.07;0.75;;;16.60;99.90;;;;;;7362992;32;20238;-64
2022/09/16 11:20:03;;;;;;;6.75;0.90;;;16.40;99.90;;;;;;7357536;32;20171;-65
2022/09/16 11:24:15;;;;;;;5.22;0.70;;;16.00;99.90;;;;;;7365414;32;20130;-64
2022/09/16 11:28:39;;;;;;;4.03;0.62;;;15.70;99.90;;;;;;7362555;32;20107;-66
2022/09/16 11:33:18;;;;;;;1.75;0.55;;;15.40;99.90;;;;;;7362555;32;20111;-64
2022/09/16 11:37:46;;;;;;;4.72;0.47;;;15.30;99.90;;;;;;7367103;32;20111;-65
2022/09/16 11:42:16;;;;;;;7.93;1.27;;;14.90;99.90;;;;;;7366694;32;20218;-64
2022/09/16 11:47:00;;;;;;;6.07;1.83;;;13.90;99.90;;;;;;7365264;32;20205;-64
2022/09/16 11:51:10;;;;;;;2.97;0.70;;;13.40;99.90;;;;;;7365767;32;20195;-64
2022/09/16 11:55:18;;;;;;;4.45;1.00;;;12.90;99.90;;;;;;7362917;32;20122;-64
2022/09/16 11:59:40;;;;;;;5.18;0.82;;;12.80;99.90;;;;;;7365337;32;20133;-64
2022/09/16 12:03:57;;;;;;;4.18;0.73;;;12.60;99.90;;;;;;7363115;32;20248;-62
2022/09/16 12:08:02;;;;;;;4.20;0.70;;;12.70;99.90;;;;;;7366934;32;20116;-63
2022/09/16 12:12:17;;;;;;;5.22;0.93;;;12.90;99.90;;;;;;7367973;32;20103;-63
2022/09/16 12:16:35;;;;;;;4.32;0.75;;;13.10;99.90;;;;;;7362548;32;20115;-63
2022/09/16 12:20:49;;;;;;;4.25;0.90;;;13.10;99.90;;;;;;7366553;32;20818;-62
2022/09/16 12:25:19;;;;;;;1.90;0.50;;;13.20;99.90;;;;;;7365464;32;20237;-62
2022/09/16 12:29:30;;;;;;;1.35;0.20;;;13.40;99.90;;;;;;7364978;32;20150;-63
2022/09/16 12:33:39;;;;;;;1.45;0.28;;;13.50;99.90;;;;;;7368024;32;20133;-63
2022/09/16 12:37:49;;;;;;;2.58;0.40;;;13.60;99.90;;;;;;7361972;32;20115;-62
2022/09/16 12:42:10;;;;;;;0.70;0.22;;;14.00;99.90;;;;;;7359680;32;20532;-63
2022/09/16 12:46:38;;;;;;;0.68;0.50;;;14.00;99.90;;;;;;7367381;32;20171;-62
2022/09/16 12:50:50;;;;;;;;;;;13.90;99.90;;;;;;7331522;32;20107;-59
2022/09/16 12:55:14;;;;;;;3.70;0.37;;;13.80;99.90;;;;;;7366368;32;20105;-64
2022/09/16 12:59:24;;;;;;;2.25;0.40;;;13.70;99.90;;;;;;7365915;32;20186;-64
2022/09/16 13:03:30;;;;;;;2.28;0.37;;;14.00;99.90;;;;;;7363792;32;20666;-66
2022/09/16 13:07:34;;;;;;;1.30;0.30;;;14.50;99.90;;;;;;7361838;32;20130;-65
2022/09/16 13:11:36;;;;;;;2.92;0.40;;;15.00;99.90;;;;;;7366931;32;22013;-66
2022/09/16 13:16:00;;;;;;;2.20;0.35;;;15.30;99.90;;;;;;7358132;32;20122;-65
2022/09/16 13:20:11;;;;;;;2.92;0.80;;;15.20;99.90;;;;;;7363793;32;20153;-65
2022/09/16 13:24:38;;;;;;;1.73;0.50;;;14.90;99.90;;;;;;7360476;32;20133;-65
2022/09/16 13:28:42;;;;;;;2.87;0.60;;;14.70;99.90;;;;;;7368439;32;20119;-65
2022/09/16 13:32:50;;;;;;;3.00;0.40;;;14.80;99.90;;;;;;7346696;32;20658;-65
2022/09/16 13:36:52;;;;;;;2.37;0.60;;;14.70;99.90;;;;;;7362682;32;20185;-66
2022/09/16 13:41:00;;;;;;;1.52;0.40;;;14.70;99.90;;;;;;7362278;32;20142;-65
2022/09/16 13:45:02;;;;;;;3.03;0.52;;;14.60;99.90;;;;;;7357408;32;20122;-65
2022/09/16 13:49:04;;;;;;;2.72;0.52;;;14.50;99.90;;;;;;7362511;32;20226;-64
2022/09/16 13:53:28;;;;;;;2.78;0.90;;;14.30;99.90;;;;;;7364272;32;20534;-64
2022/09/16 13:57:51;;;;;;;3.30;0.70;;;14.10;99.90;;;;;;7358161;32;20110;-64
2022/09/16 14:02:11;;;;;;;4.93;0.43;;;14.20;99.90;;;;;;7364799;32;20110;-64
2022/09/16 14:06:56;;;;;;;3.37;0.50;;;14.70;99.90;;;;;;7363178;32;20107;-64
2022/09/16 14:11:12;;;;;;;2.65;0.52;;;14.80;99.90;;;;;;7359792;32;20107;-64
2022/09/16 14:15:15;;;;;;;0.98;0.30;;;14.60;99.90;;;;;;7368393;32;20615;-63
2022/09/16 14:19:35;;;;;;;1.00;0.32;;;14.60;99.90;;;;;;7360418;32;20230;-63
2022/09/16 14:23:37;;;;;;;1.40;0.37;;;14.30;99.90;;;;;;7358279;32;20607;-63
2022/09/16 14:27:39;;;;;;;0.98;0.30;;;14.40;99.90;;;;;;7370066;32;20221;-65
2022/09/16 14:31:44;;;;;;;3.42;0.50;;;14.30;99.90;;;;;;7380055;32;20115;-63
2022/09/16 14:35:47;;;;;;;1.98;0.30;;;14.10;99.90;;;;;;7373248;32;20563;-63
2022/09/16 14:39:51;;;;;;;1.85;0.40;;;13.80;99.90;;;;;;7373322;32;20209;-64
2022/09/16 14:44:18;;;;;;;2.42;0.20;;;13.80;99.90;;;;;;7370980;32;20575;-63
2022/09/16 14:48:28;;;;;;;1.90;0.40;;;14.10;99.90;;;;;;7369995;32;20175;-63
2022/09/16 14:52:31;;;;;;;2.90;0.40;;;14.30;99.90;;;;;;7371142;32;20591;-64
2022/09/16 14:56:33;;;;;;;3.37;0.35;;;14.50;99.90;;;;;;7367306;32;20758;-63
2022/09/16 15:01:05;;;;;;;2.97;0.52;;;14.60;99.90;;;;;;7371395;32;20779;-64
2022/09/16 15:05:21;;;;;;;1.98;0.40;;;14.50;99.90;;;;;;7379512;32;20143;-64
2022/09/16 15:09:29;;;;;;;1.48;0.40;;;14.70;99.90;;;;;;7365359;32;20165;-64
2022/09/16 15:13:37;;;;;;;3.72;0.90;;;14.70;99.90;;;;;;7371501;32;20119;-64
2022/09/16 15:17:39;;;;;;;3.17;0.55;;;14.60;99.90;;;;;;7368129;32;20533;-64
2022/09/16 15:21:43;;;;;;;5.30;0.50;;;14.70;99.90;;;;;;7371820;32;20118;-64
2022/09/16 15:26:18;;;;;;;8.82;0.68;;;14.60;99.90;;;;;;7375228;32;20527;-64
2022/09/16 15:30:24;;;;;;;2.28;0.50;;;14.70;99.90;;;;;;7365772;32;20153;-64
2022/09/16 15:34:26;;;;;;;2.13;0.40;;;14.60;99.90;;;;;;7374137;32;20143;-65
2022/09/16 15:38:30;;;;;;;3.33;0.55;;;14.50;99.90;;;;;;7374123;32;20271;-64
2022/09/16 15:42:31;;;;;;;4.22;0.52;;;14.50;99.90;;;;;;7373985;32;20589;-65
2022/09/16 15:46:33;;;;;;;2.53;0.47;;;14.60;99.90;;;;;;7365084;32;20209;-63
2022/09/16 15:50:55;;;;;;;2.75;0.65;;;14.50;99.90;;;;;;7366035;32;20163;-64
2022/09/16 15:55:00;;;;;;;3.85;0.60;;;14.60;99.90;;;;;;7378410;32;20119;-64
2022/09/16 15:59:19;;;;;;;4.55;0.70;;;14.50;99.90;;;;;;7370896;32;20106;-63
2022/09/16 16:03:21;;;;;;;2.85;0.62;;;14.50;99.90;;;;;;7369149;32;20491;-64
2022/09/16 16:08:02;;;;;;;3.30;0.85;;;14.50;99.90;;;;;;7360949;32;20111;-64
2022/09/16 16:12:18;;;;;;;3.60;0.77;;;14.50;99.90;;;;;;7268358;32;20285;-64
2022/09/16 16:16:21;;;;;;;3.00;0.70;;;14.40;99.90;;;;;;7319672;32;20164;-63
2022/09/16 16:20:23;;;;;;;4.55;0.82;;;14.30;99.90;;;;;;7367665;32;20168;-63
2022/09/16 16:24:26;;;;;;;4.05;0.70;;;14.10;99.90;;;;;;7366867;32;20359;-62
2022/09/16 16:28:27;;;;;;;5.25;0.80;;;14.10;99.90;;;;;;7359221;32;20115;-62
2022/09/16 16:32:30;;;;;;;8.05;0.73;;;14.10;99.90;;;;;;7361207;32;20654;-63
2022/09/16 16:36:32;;;;;;;4.40;1.05;;;13.90;99.90;;;;;;7363037;32;20111;-67
2022/09/16 16:40:33;;;;;;;4.45;0.68;;;13.90;99.90;;;;;;7368743;32;20210;-67
2022/09/16 16:44:35;;;;;;;4.20;0.60;;;13.70;99.90;;;;;;7369150;32;20103;-62
2022/09/16 16:48:38;;;;;;;4.05;0.60;;;13.70;99.90;;;;;;7370889;32;20095;-61
2022/09/16 16:52:39;;;;;;;3.83;0.60;;;13.70;99.90;;;;;;7376651;32;20212;-62
2022/09/16 16:56:41;;;;;;;3.25;0.50;;;13.60;99.90;;;;;;7364706;32;20107;-62
2022/09/16 17:00:43;;;;;;;6.30;0.60;;;13.60;99.90;;;;;;7372008;32;20163;-62
2022/09/16 17:04:45;;;;;;;3.20;0.60;;;13.50;99.90;;;;;;7371947;32;20533;-62
2022/09/16 17:08:46;;;;;;;3.72;0.70;;;13.40;99.90;;;;;;7361266;32;20172;-63
2022/09/16 17:12:48;;;;;;;4.50;0.62;;;13.40;99.90;;;;;;7366891;32;20107;-62
2022/09/16 17:16:50;;;;;;;5.65;0.68;;;13.40;99.90;;;;;;7363498;32;20190;-65
2022/09/16 17:20:52;;;;;;;7.25;0.90;;;13.40;99.90;;;;;;7367656;32;20212;-62
2022/09/16 17:24:54;;;;;;;4.00;0.80;;;13.30;99.90;;;;;;7365108;32;20220;-62
2022/09/16 17:28:56;;;;;;;6.20;1.30;;;13.20;99.90;;;;;;7361983;32;20115;-62
2022/09/16 17:32:58;;;;;;;5.62;0.90;;;13.10;99.90;;;;;;7362592;32;20595;-61
2022/09/16 17:37:00;;;;;;;6.22;1.33;;;13.00;99.90;;;;;;7357796;32;20291;-67
2022/09/16 17:41:08;;;;;;;4.30;0.95;;;13.00;99.90;;;;;;7364714;32;20213;-67
2022/09/16 17:45:34;;;;;;;9.05;1.15;;;12.90;99.90;;;;;;7362849;32;20129;-63
2022/09/16 17:49:35;;;;;;;5.53;1.20;;;12.80;99.90;;;;;;7359322;32;20129;-66
2022/09/16 17:53:37;;;;;;;6.07;1.17;;;12.70;99.90;;;;;;7366289;32;20168;-66
2022/09/16 17:57:39;;;;;;;5.78;0.77;;;12.60;99.90;;;;;;7365259;32;20588;-61
2022/09/16 18:01:41;;;;;;;11.55;1.42;;;12.60;99.90;;;;;;7365243;32;20111;-62
2022/09/16 18:05:43;;;;;;;5.45;0.62;;;12.60;99.90;;;;;;7363030;32;20103;-63
2022/09/16 18:09:45;;;;;;;5.18;1.25;;;12.50;99.90;;;;;;7363973;32;20208;-61
2022/09/16 18:13:52;;;;;;;5.15;1.00;;;12.50;99.90;;;;;;7363505;32;20103;-62
2022/09/16 18:17:54;;;;;;;4.78;1.00;;;12.40;99.90;;;;;;7361441;32;20240;-62
2022/09/16 18:21:55;;;;;;;4.03;0.65;;;12.40;99.90;;;;;;7364308;32;20106;-63
2022/09/16 18:26:04;;;;;;;7.90;2.40;;;12.40;99.90;;;;;;7371633;32;20522;-64
2022/09/16 18:30:06;;;;;;;6.12;1.10;;;12.30;99.90;;;;;;7368257;32;20103;-63
2022/09/16 18:34:08;;;;;;;3.65;1.02;;;12.30;99.90;;;;;;7363854;32;20112;-63
2022/09/16 18:38:11;;;;;;;6.45;1.00;;;12.30;99.90;;;;;;7365311;32;20553;-64
2022/09/16 18:42:13;;;;;;;5.30;1.25;;;12.30;99.90;;;;;;7366734;32;20095;-63
2022/09/16 18:46:17;;;;;;;3.75;0.90;;;12.20;99.90;;;;;;7372265;32;20781;-63
2022/09/16 18:50:24;;;;;;;5.80;0.90;;;12.30;99.90;;;;;;7368837;32;20113;-63
2022/09/16 18:54:27;;;;;;;10.18;1.15;;;12.20;99.90;;;;;;7361011;32;20138;-63
2022/09/16 18:58:29;;;;;;;4.03;0.73;;;12.20;99.90;;;;;;7364289;32;20221;-63
2022/09/16 19:02:31;;;;;;;3.50;0.93;;;12.10;99.90;;;;;;7369341;32;20107;-64
2022/09/16 19:06:35;;;;;;;3.47;0.90;;;12.10;99.90;;;;;;7363512;32;20198;-62
2022/09/16 19:10:37;;;;;;;4.22;0.95;;;12.00;99.90;;;;;;7362179;32;20133;-61
2022/09/16 19:14:40;;;;;;;3.90;0.77;;;12.00;99.90;;;;;;7363934;32;20622;-63
2022/09/16 19:18:41;;;;;;;5.43;0.80;;;12.00;99.90;;;;;;7363407;32;20126;-63
2022/09/16 19:22:43;;;;;;;3.92;0.70;;;11.90;99.90;;;;;;7368532;32;20099;-62
2022/09/16 19:26:46;;;;;;;3.30;0.90;;;11.90;99.90;;;;;;7364064;32;20162;-66
2022/09/16 19:30:48;;;;;;;4.45;0.80;;;11.80;99.90;;;;;;7366951;32;20099;-61
2022/09/16 19:34:50;;;;;;;4.60;1.00;;;11.70;99.90;;;;;;7367648;32;20201;-62
2022/09/16 19:38:53;;;;;;;4.68;0.82;;;11.70;99.90;;;;;;7377904;32;20099;-61
2022/09/16 19:42:54;;;;;;;6.80;0.73;;;11.70;99.90;;;;;;7366984;32;20477;-62
2022/09/16 19:46:56;;;;;;;3.15;0.82;;;11.70;99.90;;;;;;7368063;32;20753;-61
2022/09/16 19:50:58;;;;;;;5.87;1.10;;;11.60;99.90;;;;;;7376932;32;20125;-62
2022/09/16 19:55:00;;;;;;;5.07;0.88;;;11.60;99.90;;;;;;7370781;32;20931;-63
2022/09/16 19:59:02;;;;;;;6.20;1.00;;;11.50;99.90;;;;;;7368829;32;20107;-62
2022/09/16 20:03:03;;;;;;;4.93;0.70;;;11.60;99.90;;;;;;7368100;32;20099;-62
2022/09/16 20:07:11;;;;;;;6.87;1.25;;;11.40;99.90;;;;;;7366506;32;20680;-60
2022/09/16 20:11:18;;;;;;;6.75;0.80;;;11.40;99.90;;;;;;7370080;32;20196;-61
2022/09/16 20:15:20;;;;;;;;;;;11.20;99.90;;;;;;7365045;32;20182;-62
2022/09/16 20:19:22;;;;;;;5.50;1.08;;;11.30;99.90;;;;;;7370308;32;20006;-63
2022/09/16 20:23:24;;;;;;;4.45;1.00;;;11.20;99.90;;;;;;7371360;32;20099;-62
2022/09/16 20:27:25;;;;;;;4.28;1.30;;;11.30;99.90;;;;;;7362841;32;20103;-62
2022/09/16 20:31:30;;;;;;;6.50;0.82;;;11.20;99.90;;;;;;7367106;32;20114;-61
2022/09/16 20:35:33;;;;;;;6.45;1.05;;;11.10;99.90;;;;;;7366009;32;20261;-61
2022/09/16 20:39:34;;;;;;;7.87;1.05;;;11.00;99.90;;;;;;7369125;32;20248;-61
2022/09/16 20:43:36;;;;;;;4.35;0.80;;;11.00;99.90;;;;;;7373033;32;20495;-61
2022/09/16 20:47:38;;;;;;;7.82;1.55;;;11.00;99.90;;;;;;7366838;32;20114;-61
2022/09/16 20:51:40;;;;;;;4.55;1.00;;;11.00;99.90;;;;;;7361445;32;20241;-62
2022/09/16 20:55:42;;;;;;;10.98;1.87;;;11.00;99.90;;;;;;7365939;32;20104;-62
2022/09/16 20:59:43;;;;;;;5.45;0.90;;;10.90;99.90;;;;;;7360768;32;20104;-61
2022/09/16 21:03:50;;;;;;;7.80;0.98;;;11.00;99.90;;;;;;7362028;32;20099;-61
2022/09/16 21:07:52;;;;;;;6.70;0.88;;;11.00;99.90;;;;;;7361593;32;20108;-61
2022/09/16 21:11:54;;;;;;;5.45;0.90;;;10.90;99.90;;;;;;7367138;32;20598;-61
2022/09/16 21:15:57;;;;;;;4.05;1.23;;;10.90;99.90;;;;;;7358192;32;20475;-61
2022/09/16 21:19:59;;;;;;;8.15;1.00;;;10.90;99.90;;;;;;7363205;32;20243;-63
2022/09/16 21:24:01;;;;;;;7.28;1.20;;;10.90;99.90;;;;;;7362403;32;20496;-58
2022/09/16 21:28:02;;;;;;;5.28;0.93;;;10.90;99.90;;;;;;7365356;32;20092;-58
2022/09/16 21:32:04;;;;;;;6.62;1.40;;;10.90;99.90;;;;;;7365060;32;20107;-58